Skip Navigation Links
NOAA logo - Click to go to the NOAA homepage
NOAA's National Weather Service
Alaska Aviation Weather Unit
  NWS logo - Click to go to the NWS homepage
Left Navbar Graphic     10 AKDT = 18 GMT

   
NOAA is celebrating 200 years of science, service, and stewardship. Visit the NOAA 200th celebration Web site to learn more.
USA.gov is the U.S. Government's official Web portal to all Federal, state and local government Web resources and services.
Facebook
NWS on Facebook

Important Change Regarding the AAWU Web Presence

 

Over the last several months, the AAWU has been working to navigate its webpages to a nationally supported server. Security, as well as other needs, have necessitated the change.  We have been given an extension for the site changeover while we diligently work at addressing feedback received. As of July 14, 2017, aawu.arh.noaa.gov will be discontinued. The new AAWU web address is weather.gov/aawu. It is now live and will run in-parallel with the old site until it is discontinued on July 14, 2017. Please continue to send any feedback or questions regarding the new webpages to nws.ar.aawu.webauthors@noaa.gov.  Thank you for your patience during this time of transition.
AAWU Home :: Display TAF Add Bookmark
TAF PAFB 102000Z 1020/1202 26009KT 9999 SCT080 BKN200 QNH2954INS
      TX24/1100Z TN09/1112Z=
PAFB 261228Z AUTO 00000KT 1 3/4SM R25R/3000FT BR OVC002 07/07
A2985=

PAFB 261233Z AUTO 00000KT 7/8SM R25R/2000FT BR VV002 07/07 A2985=

METAR PAFB 261258Z AUTO 00000KT 1 1/8SM R25R/2200FT BR OVC002 07/06
     A2985=

PAFB 261303Z AUTO 00000KT 1SM R25R/2000FT BR VV002 07/06 A2985=

PAFB 261323Z AUTO 00000KT 1 1/8SM R25R/2400FT BR OVC002 07/06
A2985=

PAFB 261328Z AUTO 00000KT 7/8SM R25R/2000FT BR VV002 06/06 A2985=

PAFB 261343Z AUTO 00000KT 3/8SM R25R/1000FT FG VV002 06/06 A2985=

PAFB 261348Z AUTO 00000KT 3/8SM R25R/0800FT FG VV001 06/06 A2985=

METAR PAFB 261358Z AUTO 00000KT 1/4SM R25R/0700FT FG VV001 06/06
     A2986=

PAFB 261436Z AUTO 00000KT 1/2SM R25R/1200FT FG VV001 06/06 A2986=

METAR PAFB 261458Z AUTO 00000KT 1/2SM R25R/1200FT FG VV002 06/06
     A2986=

PAFB 261528Z AUTO 00000KT 5/8SM R25R/3500FT BR VV003 06/06 A2986=

PAFB 261543Z AUTO 00000KT 3SM BR OVC003 06/06 A2987=

METAR PAFB 261558Z AUTO 00000KT 1 5/8SM BR OVC003 06/06 A2987=

PAFB 261603Z AUTO 00000KT 5/8SM R25R/P6000FT BR VV004 06/06 A2987=

PAFB 261613Z AUTO 00000KT 3/8SM R25R/4500FT FG VV004 06/06 A2987=

PAFB 261618Z AUTO 00000KT 1/2SM R25R/4500FT FG VV004 06/06 A2987=

PAFB 261623Z AUTO 00000KT 1/2SM R25R/5500FT FG VV005 06/06 A2987=

PAFB 261633Z AUTO 00000KT 7/8SM R25R/P6000FT BR BKN006 OVC010
06/06 A2988=

PAFB 261636Z AUTO 06003KT 3/4SM R25R/P6000FT -RA BR VV005 06/06
A2988=

PAFB 261646Z AUTO 08004KT 3/8SM R25R/4500FT -RA FG BKN004 OVC008
06/06 A2988=

PAFB 261651Z AUTO 05004KT 1/2SM R25R/4500FT -RA FG BKN004 OVC010
06/06 A2988=

PAFB 261656Z AUTO 05007KT 5/8SM R25R/5500FT -DZ BR SCT004 OVC011
06/06 A2988=

METAR PAFB 261658Z AUTO 04007KT 3/4SM R25R/P6000FT -DZ BR SCT004 OVC011
     06/06 A2988=

PAFB 261659Z AUTO 05006KT 3/4SM R25R/P6000FT BR SCT004 OVC011
06/06 A2988=

PAFB 261704Z AUTO 04005KT 1 3/8SM BR SCT004 OVC011 06/06 A2988=

PAFB 261709Z AUTO 03005KT 2 1/4SM BR FEW005 OVC012 06/06 A2988=

PAFB 261714Z AUTO 04005KT 4SM BR FEW004 BKN013 OVC018 06/06 A2988=

PAFB 261719Z AUTO 06004KT 6SM BR OVC015 06/06 A2988=

PAFB 261744Z AUTO 05007KT 10SM SCT018 BKN040 BKN048 OVC080 06/05
A2988=

METAR PAFB 261758Z AUTO 05007KT 10SM SCT022 BKN040 BKN048 OVC080 06/05
     A2988=

PAFB 261803Z AUTO 06007KT 10SM FEW013 BKN021 BKN039 BKN048 OVC080
06/05 A2989=

PAFB 261811Z 06007KT 10SM BKN013 BKN021 BKN048 OVC080 06/05 A2989=


NOAA's National Weather Service
Alaska Aviation Weather Unit
6930 Sand Lake Road
Anchorage, AK 99502-1845
Disclaimer
Credits
Glossary
Privacy Policy
About Us
Career Opportunities
Contact AAWU Internet Services Site last modified: April, 17th 2012